sensor_id;sensor_type;location;lat;lon;timestamp;temperature;humidity
11079;DHT22;5592;49.234;7.268;2023-12-22T00:01:19;8.40;99.90
11079;DHT22;5592;49.234;7.268;2023-12-22T00:03:45;8.40;99.90
11079;DHT22;5592;49.234;7.268;2023-12-22T00:06:15;8.40;99.90
11079;DHT22;5592;49.234;7.268;2023-12-22T00:08:41;8.30;99.90
11079;DHT22;5592;49.234;7.268;2023-12-22T00:11:07;8.40;99.90
11079;DHT22;5592;49.234;7.268;2023-12-22T00:13:32;8.30;99.90
11079;DHT22;5592;49.234;7.268;2023-12-22T00:15:59;8.30;99.90
11079;DHT22;5592;49.234;7.268;2023-12-22T00:18:26;8.20;99.90
11079;DHT22;5592;49.234;7.268;2023-12-22T00:20:51;8.10;99.90
11079;DHT22;5592;49.234;7.268;2023-12-22T00:23:17;7.90;99.90
11079;DHT22;5592;49.234;7.268;2023-12-22T00:25:42;7.80;99.90
11079;DHT22;5592;49.234;7.268;2023-12-22T00:28:08;7.80;99.90
11079;DHT22;5592;49.234;7.268;2023-12-22T00:30:34;7.70;99.90
11079;DHT22;5592;49.234;7.268;2023-12-22T00:32:59;7.60;99.90
11079;DHT22;5592;49.234;7.268;2023-12-22T00:35:25;7.60;99.90
11079;DHT22;5592;49.234;7.268;2023-12-22T00:37:50;7.50;99.90
11079;DHT22;5592;49.234;7.268;2023-12-22T00:40:16;7.40;99.90
11079;DHT22;5592;49.234;7.268;2023-12-22T00:42:42;7.40;99.90
11079;DHT22;5592;49.234;7.268;2023-12-22T00:45:07;7.40;99.90
11079;DHT22;5592;49.234;7.268;2023-12-22T00:47:33;7.40;99.90
11079;DHT22;5592;49.234;7.268;2023-12-22T00:50:02;7.30;99.90
11079;DHT22;5592;49.234;7.268;2023-12-22T00:52:29;7.30;99.90
11079;DHT22;5592;49.234;7.268;2023-12-22T00:54:56;7.30;99.90
11079;DHT22;5592;49.234;7.268;2023-12-22T00:57:22;7.30;99.90
11079;DHT22;5592;49.234;7.268;2023-12-22T00:59:47;7.10;99.90
11079;DHT22;5592;49.234;7.268;2023-12-22T01:02:14;7.10;99.90
11079;DHT22;5592;49.234;7.268;2023-12-22T01:04:40;7.10;99.90
11079;DHT22;5592;49.234;7.268;2023-12-22T01:07:07;7.20;99.90
11079;DHT22;5592;49.234;7.268;2023-12-22T01:09:34;7.10;99.90
11079;DHT22;5592;49.234;7.268;2023-12-22T01:12:00;7.20;99.90
11079;DHT22;5592;49.234;7.268;2023-12-22T01:14:29;7.20;99.90
11079;DHT22;5592;49.234;7.268;2023-12-22T01:16:55;7.10;99.90
11079;DHT22;5592;49.234;7.268;2023-12-22T01:19:20;7.10;99.90
11079;DHT22;5592;49.234;7.268;2023-12-22T01:21:47;7.10;99.90
11079;DHT22;5592;49.234;7.268;2023-12-22T01:24:12;7.20;99.90
11079;DHT22;5592;49.234;7.268;2023-12-22T01:26:38;7.20;99.90
11079;DHT22;5592;49.234;7.268;2023-12-22T01:29:04;7.30;99.90
11079;DHT22;5592;49.234;7.268;2023-12-22T01:31:30;7.20;99.90
11079;DHT22;5592;49.234;7.268;2023-12-22T01:33:55;7.30;99.90
11079;DHT22;5592;49.234;7.268;2023-12-22T01:36:21;7.30;99.90
11079;DHT22;5592;49.234;7.268;2023-12-22T01:38:46;7.30;99.90
11079;DHT22;5592;49.234;7.268;2023-12-22T01:41:12;7.30;99.90
11079;DHT22;5592;49.234;7.268;2023-12-22T01:43:38;7.30;99.90
11079;DHT22;5592;49.234;7.268;2023-12-22T01:46:04;7.30;99.90
11079;DHT22;5592;49.234;7.268;2023-12-22T01:48:31;7.30;99.90
11079;DHT22;5592;49.234;7.268;2023-12-22T01:50:58;7.30;99.90
11079;DHT22;5592;49.234;7.268;2023-12-22T01:53:25;7.40;99.90
11079;DHT22;5592;49.234;7.268;2023-12-22T01:55:53;7.30;99.90
11079;DHT22;5592;49.234;7.268;2023-12-22T01:58:19;7.30;99.90
11079;DHT22;5592;49.234;7.268;2023-12-22T02:00:46;7.30;99.90
11079;DHT22;5592;49.234;7.268;2023-12-22T02:03:12;7.20;99.90
11079;DHT22;5592;49.234;7.268;2023-12-22T02:05:41;7.20;99.90
11079;DHT22;5592;49.234;7.268;2023-12-22T02:08:07;7.20;99.90
11079;DHT22;5592;49.234;7.268;2023-12-22T02:10:32;7.20;99.90
11079;DHT22;5592;49.234;7.268;2023-12-22T02:12:58;7.20;99.90
11079;DHT22;5592;49.234;7.268;2023-12-22T02:15:24;7.10;99.90
11079;DHT22;5592;49.234;7.268;2023-12-22T02:18:01;7.10;99.90
11079;DHT22;5592;49.234;7.268;2023-12-22T02:20:28;7.00;99.90
11079;DHT22;5592;49.234;7.268;2023-12-22T02:22:55;7.10;99.90
11079;DHT22;5592;49.234;7.268;2023-12-22T02:25:21;7.10;99.90
11079;DHT22;5592;49.234;7.268;2023-12-22T02:27:57;7.20;99.90
11079;DHT22;5592;49.234;7.268;2023-12-22T02:30:31;7.20;99.90
11079;DHT22;5592;49.234;7.268;2023-12-22T02:33:00;7.30;99.90
11079;DHT22;5592;49.234;7.268;2023-12-22T02:35:28;7.30;99.90
11079;DHT22;5592;49.234;7.268;2023-12-22T02:37:56;7.40;99.90
11079;DHT22;5592;49.234;7.268;2023-12-22T02:40:23;7.40;99.90
11079;DHT22;5592;49.234;7.268;2023-12-22T02:42:51;7.30;99.90
11079;DHT22;5592;49.234;7.268;2023-12-22T02:45:18;7.30;99.90
11079;DHT22;5592;49.234;7.268;2023-12-22T02:47:44;7.30;99.90
11079;DHT22;5592;49.234;7.268;2023-12-22T02:50:12;7.30;99.90
11079;DHT22;5592;49.234;7.268;2023-12-22T02:52:38;7.40;99.90
11079;DHT22;5592;49.234;7.268;2023-12-22T02:55:04;7.40;99.90
11079;DHT22;5592;49.234;7.268;2023-12-22T02:57:30;7.40;99.90
11079;DHT22;5592;49.234;7.268;2023-12-22T02:59:59;7.50;99.90
11079;DHT22;5592;49.234;7.268;2023-12-22T03:02:25;7.50;99.90
11079;DHT22;5592;49.234;7.268;2023-12-22T03:04:53;7.60;99.90
11079;DHT22;5592;49.234;7.268;2023-12-22T03:07:18;7.60;99.90
11079;DHT22;5592;49.234;7.268;2023-12-22T03:09:44;7.60;99.90
11079;DHT22;5592;49.234;7.268;2023-12-22T03:12:10;7.60;99.90
11079;DHT22;5592;49.234;7.268;2023-12-22T03:14:36;7.40;99.90
11079;DHT22;5592;49.234;7.268;2023-12-22T03:17:03;7.30;99.90
11079;DHT22;5592;49.234;7.268;2023-12-22T03:19:30;7.20;99.90
11079;DHT22;5592;49.234;7.268;2023-12-22T03:21:57;7.20;99.90
11079;DHT22;5592;49.234;7.268;2023-12-22T03:24:26;7.10;99.90
11079;DHT22;5592;49.234;7.268;2023-12-22T03:26:52;7.10;99.90
11079;DHT22;5592;49.234;7.268;2023-12-22T03:29:18;7.10;99.90
11079;DHT22;5592;49.234;7.268;2023-12-22T03:31:44;7.10;99.90
11079;DHT22;5592;49.234;7.268;2023-12-22T03:34:10;7.00;99.90
11079;DHT22;5592;49.234;7.268;2023-12-22T03:36:36;7.00;99.90
11079;DHT22;5592;49.234;7.268;2023-12-22T03:39:02;6.90;99.90
11079;DHT22;5592;49.234;7.268;2023-12-22T03:41:28;6.80;99.90
11079;DHT22;5592;49.234;7.268;2023-12-22T03:43:55;6.80;99.90
11079;DHT22;5592;49.234;7.268;2023-12-22T03:46:20;6.80;99.90
11079;DHT22;5592;49.234;7.268;2023-12-22T03:48:46;6.80;99.90
11079;DHT22;5592;49.234;7.268;2023-12-22T03:51:12;6.80;99.90
11079;DHT22;5592;49.234;7.268;2023-12-22T03:53:38;6.80;99.90
11079;DHT22;5592;49.234;7.268;2023-12-22T03:56:04;6.80;99.90
11079;DHT22;5592;49.234;7.268;2023-12-22T03:58:30;6.80;99.90
11079;DHT22;5592;49.234;7.268;2023-12-22T04:00:56;6.80;99.90
11079;DHT22;5592;49.234;7.268;2023-12-22T04:03:22;6.70;99.90
11079;DHT22;5592;49.234;7.268;2023-12-22T04:05:47;6.70;99.90
11079;DHT22;5592;49.234;7.268;2023-12-22T04:08:13;6.60;99.90
11079;DHT22;5592;49.234;7.268;2023-12-22T04:10:38;6.60;99.90
11079;DHT22;5592;49.234;7.268;2023-12-22T04:13:04;6.60;99.90
11079;DHT22;5592;49.234;7.268;2023-12-22T04:15:30;6.60;99.90
11079;DHT22;5592;49.234;7.268;2023-12-22T04:17:55;6.60;99.90
11079;DHT22;5592;49.234;7.268;2023-12-22T04:20:21;6.60;99.90
11079;DHT22;5592;49.234;7.268;2023-12-22T04:22:46;6.60;99.90
11079;DHT22;5592;49.234;7.268;2023-12-22T04:25:12;6.60;99.90
11079;DHT22;5592;49.234;7.268;2023-12-22T04:27:37;6.70;99.90
11079;DHT22;5592;49.234;7.268;2023-12-22T04:30:03;6.70;99.90
11079;DHT22;5592;49.234;7.268;2023-12-22T04:32:35;6.80;99.90
11079;DHT22;5592;49.234;7.268;2023-12-22T04:35:01;6.80;99.90
11079;DHT22;5592;49.234;7.268;2023-12-22T04:37:26;6.80;99.90
11079;DHT22;5592;49.234;7.268;2023-12-22T04:39:52;6.80;99.90
11079;DHT22;5592;49.234;7.268;2023-12-22T04:42:21;6.80;99.90
11079;DHT22;5592;49.234;7.268;2023-12-22T04:44:46;6.80;99.90
11079;DHT22;5592;49.234;7.268;2023-12-22T04:47:15;6.80;99.90
11079;DHT22;5592;49.234;7.268;2023-12-22T04:49:40;6.80;99.90
11079;DHT22;5592;49.234;7.268;2023-12-22T04:52:06;6.80;99.90
11079;DHT22;5592;49.234;7.268;2023-12-22T04:54:32;6.70;99.90
11079;DHT22;5592;49.234;7.268;2023-12-22T04:56:57;6.70;99.90
11079;DHT22;5592;49.234;7.268;2023-12-22T04:59:23;6.80;99.90
11079;DHT22;5592;49.234;7.268;2023-12-22T05:01:49;6.90;99.90
11079;DHT22;5592;49.234;7.268;2023-12-22T05:04:14;7.00;99.90
11079;DHT22;5592;49.234;7.268;2023-12-22T05:06:40;7.00;99.90
11079;DHT22;5592;49.234;7.268;2023-12-22T05:09:05;7.00;99.90
11079;DHT22;5592;49.234;7.268;2023-12-22T05:11:32;7.00;99.90
11079;DHT22;5592;49.234;7.268;2023-12-22T05:13:58;7.00;99.90
11079;DHT22;5592;49.234;7.268;2023-12-22T05:16:24;7.10;99.90
11079;DHT22;5592;49.234;7.268;2023-12-22T05:18:49;7.20;99.90
11079;DHT22;5592;49.234;7.268;2023-12-22T05:21:21;7.20;99.90
11079;DHT22;5592;49.234;7.268;2023-12-22T05:23:47;7.30;99.90
11079;DHT22;5592;49.234;7.268;2023-12-22T05:26:19;7.40;99.90
11079;DHT22;5592;49.234;7.268;2023-12-22T05:28:46;7.40;99.90
11079;DHT22;5592;49.234;7.268;2023-12-22T05:31:11;7.40;99.90
11079;DHT22;5592;49.234;7.268;2023-12-22T05:33:42;7.50;99.90
11079;DHT22;5592;49.234;7.268;2023-12-22T05:36:08;7.50;99.90
11079;DHT22;5592;49.234;7.268;2023-12-22T05:38:39;7.50;99.90
11079;DHT22;5592;49.234;7.268;2023-12-22T05:41:06;7.50;99.90
11079;DHT22;5592;49.234;7.268;2023-12-22T05:43:40;7.60;99.90
11079;DHT22;5592;49.234;7.268;2023-12-22T05:46:05;7.50;99.90
11079;DHT22;5592;49.234;7.268;2023-12-22T05:48:34;7.50;99.90
11079;DHT22;5592;49.234;7.268;2023-12-22T05:51:00;7.50;99.90
11079;DHT22;5592;49.234;7.268;2023-12-22T05:53:28;7.50;99.90
11079;DHT22;5592;49.234;7.268;2023-12-22T05:55:54;7.40;99.90
11079;DHT22;5592;49.234;7.268;2023-12-22T05:58:19;7.40;99.90
11079;DHT22;5592;49.234;7.268;2023-12-22T06:00:45;7.40;99.90
11079;DHT22;5592;49.234;7.268;2023-12-22T06:03:11;7.30;99.90
11079;DHT22;5592;49.234;7.268;2023-12-22T06:05:36;7.30;99.90
11079;DHT22;5592;49.234;7.268;2023-12-22T06:08:02;7.30;99.90
11079;DHT22;5592;49.234;7.268;2023-12-22T06:10:27;7.30;99.90
11079;DHT22;5592;49.234;7.268;2023-12-22T06:12:53;7.20;99.90
11079;DHT22;5592;49.234;7.268;2023-12-22T06:15:19;7.20;99.90
11079;DHT22;5592;49.234;7.268;2023-12-22T06:17:44;7.10;99.90
11079;DHT22;5592;49.234;7.268;2023-12-22T06:20:10;7.00;99.90
11079;DHT22;5592;49.234;7.268;2023-12-22T06:22:36;7.00;99.90
11079;DHT22;5592;49.234;7.268;2023-12-22T06:25:01;7.00;99.90
11079;DHT22;5592;49.234;7.268;2023-12-22T06:27:35;7.00;99.90
11079;DHT22;5592;49.234;7.268;2023-12-22T06:30:03;7.00;99.90
11079;DHT22;5592;49.234;7.268;2023-12-22T06:32:29;7.10;99.90
11079;DHT22;5592;49.234;7.268;2023-12-22T06:34:54;7.10;99.90
11079;DHT22;5592;49.234;7.268;2023-12-22T06:37:20;7.10;99.90
11079;DHT22;5592;49.234;7.268;2023-12-22T06:39:45;7.20;99.90
11079;DHT22;5592;49.234;7.268;2023-12-22T06:42:11;7.20;99.90
11079;DHT22;5592;49.234;7.268;2023-12-22T06:44:38;7.20;99.90
11079;DHT22;5592;49.234;7.268;2023-12-22T06:47:03;7.20;99.90
11079;DHT22;5592;49.234;7.268;2023-12-22T06:49:30;7.20;99.90
11079;DHT22;5592;49.234;7.268;2023-12-22T06:51:55;7.20;99.90
11079;DHT22;5592;49.234;7.268;2023-12-22T06:54:21;7.20;99.90
11079;DHT22;5592;49.234;7.268;2023-12-22T06:56:47;7.20;99.90
11079;DHT22;5592;49.234;7.268;2023-12-22T06:59:12;7.20;99.90
11079;DHT22;5592;49.234;7.268;2023-12-22T07:01:38;7.20;99.90
11079;DHT22;5592;49.234;7.268;2023-12-22T07:04:04;7.20;99.90
11079;DHT22;5592;49.234;7.268;2023-12-22T07:06:31;7.20;99.90
11079;DHT22;5592;49.234;7.268;2023-12-22T07:11:26;7.20;99.90
11079;DHT22;5592;49.234;7.268;2023-12-22T07:13:51;7.30;99.90
11079;DHT22;5592;49.234;7.268;2023-12-22T07:16:17;7.30;99.90
11079;DHT22;5592;49.234;7.268;2023-12-22T07:18:42;7.30;99.90
11079;DHT22;5592;49.234;7.268;2023-12-22T07:21:08;7.30;99.90
11079;DHT22;5592;49.234;7.268;2023-12-22T07:23:41;7.30;99.90
11079;DHT22;5592;49.234;7.268;2023-12-22T07:26:13;7.30;99.90
11079;DHT22;5592;49.234;7.268;2023-12-22T07:28:39;7.40;99.90
11079;DHT22;5592;49.234;7.268;2023-12-22T07:31:05;7.40;99.90
11079;DHT22;5592;49.234;7.268;2023-12-22T07:33:31;7.50;99.90
11079;DHT22;5592;49.234;7.268;2023-12-22T07:35:57;7.50;99.90
11079;DHT22;5592;49.234;7.268;2023-12-22T07:38:22;7.50;99.90
11079;DHT22;5592;49.234;7.268;2023-12-22T07:40:48;7.50;99.90
11079;DHT22;5592;49.234;7.268;2023-12-22T07:43:15;7.50;99.90
11079;DHT22;5592;49.234;7.268;2023-12-22T07:45:40;7.40;99.90
11079;DHT22;5592;49.234;7.268;2023-12-22T07:48:06;7.40;99.90
11079;DHT22;5592;49.234;7.268;2023-12-22T07:50:32;7.40;99.90
11079;DHT22;5592;49.234;7.268;2023-12-22T07:52:58;7.40;99.90
11079;DHT22;5592;49.234;7.268;2023-12-22T07:55:24;7.50;99.90
11079;DHT22;5592;49.234;7.268;2023-12-22T07:57:50;7.50;99.90
11079;DHT22;5592;49.234;7.268;2023-12-22T08:00:17;7.50;99.90
11079;DHT22;5592;49.234;7.268;2023-12-22T08:02:45;7.60;99.90
11079;DHT22;5592;49.234;7.268;2023-12-22T08:05:12;7.60;99.90
11079;DHT22;5592;49.234;7.268;2023-12-22T08:07:38;7.70;99.90
11079;DHT22;5592;49.234;7.268;2023-12-22T08:10:07;7.70;99.90
11079;DHT22;5592;49.234;7.268;2023-12-22T08:12:32;7.80;99.90
11079;DHT22;5592;49.234;7.268;2023-12-22T08:14:58;7.80;99.90
11079;DHT22;5592;49.234;7.268;2023-12-22T08:17:27;7.90;99.90
11079;DHT22;5592;49.234;7.268;2023-12-22T08:19:53;7.90;99.90
11079;DHT22;5592;49.234;7.268;2023-12-22T08:22:19;7.90;99.90
11079;DHT22;5592;49.234;7.268;2023-12-22T08:24:44;7.90;99.90
11079;DHT22;5592;49.234;7.268;2023-12-22T08:27:10;7.90;99.90
11079;DHT22;5592;49.234;7.268;2023-12-22T08:29:36;7.90;99.90
11079;DHT22;5592;49.234;7.268;2023-12-22T08:32:02;8.00;99.90
11079;DHT22;5592;49.234;7.268;2023-12-22T08:34:28;8.00;99.90
11079;DHT22;5592;49.234;7.268;2023-12-22T08:36:53;8.10;99.90
11079;DHT22;5592;49.234;7.268;2023-12-22T08:39:19;8.10;99.90
11079;DHT22;5592;49.234;7.268;2023-12-22T08:41:45;8.10;99.90
11079;DHT22;5592;49.234;7.268;2023-12-22T08:44:12;8.20;99.90
11079;DHT22;5592;49.234;7.268;2023-12-22T08:46:40;8.30;99.90
11079;DHT22;5592;49.234;7.268;2023-12-22T08:49:06;8.20;99.90
11079;DHT22;5592;49.234;7.268;2023-12-22T08:51:31;8.30;99.90
11079;DHT22;5592;49.234;7.268;2023-12-22T08:53:58;8.30;99.90
11079;DHT22;5592;49.234;7.268;2023-12-22T08:56:24;8.30;99.90
11079;DHT22;5592;49.234;7.268;2023-12-22T08:58:52;8.30;99.90
11079;DHT22;5592;49.234;7.268;2023-12-22T09:01:18;8.40;99.90
11079;DHT22;5592;49.234;7.268;2023-12-22T09:03:44;8.40;99.90
11079;DHT22;5592;49.234;7.268;2023-12-22T09:06:16;8.40;99.90
11079;DHT22;5592;49.234;7.268;2023-12-22T09:08:43;8.50;99.90
11079;DHT22;5592;49.234;7.268;2023-12-22T09:11:12;8.50;99.90
11079;DHT22;5592;49.234;7.268;2023-12-22T09:13:38;8.50;99.90
11079;DHT22;5592;49.234;7.268;2023-12-22T09:16:05;8.50;99.90
11079;DHT22;5592;49.234;7.268;2023-12-22T09:18:31;8.50;99.90
11079;DHT22;5592;49.234;7.268;2023-12-22T09:20:57;8.40;99.90
11079;DHT22;5592;49.234;7.268;2023-12-22T09:23:23;8.40;99.90
11079;DHT22;5592;49.234;7.268;2023-12-22T09:25:49;8.40;99.90
11079;DHT22;5592;49.234;7.268;2023-12-22T09:28:15;8.40;99.90
11079;DHT22;5592;49.234;7.268;2023-12-22T09:30:41;8.40;99.90
11079;DHT22;5592;49.234;7.268;2023-12-22T09:33:08;8.40;99.90
11079;DHT22;5592;49.234;7.268;2023-12-22T09:35:34;8.40;99.90
11079;DHT22;5592;49.234;7.268;2023-12-22T09:38:00;8.40;99.90
11079;DHT22;5592;49.234;7.268;2023-12-22T09:40:26;8.50;99.90
11079;DHT22;5592;49.234;7.268;2023-12-22T09:42:54;8.50;99.90
11079;DHT22;5592;49.234;7.268;2023-12-22T09:45:21;8.50;99.90
11079;DHT22;5592;49.234;7.268;2023-12-22T09:47:48;8.60;99.90
11079;DHT22;5592;49.234;7.268;2023-12-22T09:50:15;8.60;99.90
11079;DHT22;5592;49.234;7.268;2023-12-22T09:52:44;8.50;99.90
11079;DHT22;5592;49.234;7.268;2023-12-22T09:55:12;8.60;99.90
11079;DHT22;5592;49.234;7.268;2023-12-22T09:57:38;8.50;99.90
11079;DHT22;5592;49.234;7.268;2023-12-22T10:00:10;8.60;99.90
11079;DHT22;5592;49.234;7.268;2023-12-22T10:02:38;8.60;99.90
11079;DHT22;5592;49.234;7.268;2023-12-22T10:05:04;8.60;99.90
11079;DHT22;5592;49.234;7.268;2023-12-22T10:07:30;8.60;99.90
11079;DHT22;5592;49.234;7.268;2023-12-22T10:09:56;8.70;99.90
11079;DHT22;5592;49.234;7.268;2023-12-22T10:12:24;8.60;99.90
11079;DHT22;5592;49.234;7.268;2023-12-22T10:14:51;8.60;99.90
11079;DHT22;5592;49.234;7.268;2023-12-22T10:17:18;8.60;99.90
11079;DHT22;5592;49.234;7.268;2023-12-22T10:19:44;8.60;99.90
11079;DHT22;5592;49.234;7.268;2023-12-22T10:22:09;8.60;99.90
11079;DHT22;5592;49.234;7.268;2023-12-22T10:24:42;8.70;99.90
11079;DHT22;5592;49.234;7.268;2023-12-22T10:27:09;8.70;99.90
11079;DHT22;5592;49.234;7.268;2023-12-22T10:29:35;8.70;99.90
11079;DHT22;5592;49.234;7.268;2023-12-22T10:32:01;8.70;99.90
11079;DHT22;5592;49.234;7.268;2023-12-22T10:34:33;8.80;99.90
11079;DHT22;5592;49.234;7.268;2023-12-22T10:37:00;8.80;99.90
11079;DHT22;5592;49.234;7.268;2023-12-22T10:39:29;8.80;99.90
11079;DHT22;5592;49.234;7.268;2023-12-22T10:41:56;8.80;99.90
11079;DHT22;5592;49.234;7.268;2023-12-22T10:44:26;8.80;99.90
11079;DHT22;5592;49.234;7.268;2023-12-22T10:46:52;8.70;99.90
11079;DHT22;5592;49.234;7.268;2023-12-22T10:49:20;8.80;99.90
11079;DHT22;5592;49.234;7.268;2023-12-22T10:51:45;8.80;99.90
11079;DHT22;5592;49.234;7.268;2023-12-22T10:54:11;8.70;99.90
11079;DHT22;5592;49.234;7.268;2023-12-22T10:56:36;8.70;99.90
11079;DHT22;5592;49.234;7.268;2023-12-22T10:59:02;8.70;99.90
11079;DHT22;5592;49.234;7.268;2023-12-22T11:01:30;8.80;99.90
11079;DHT22;5592;49.234;7.268;2023-12-22T11:04:02;8.80;99.90
11079;DHT22;5592;49.234;7.268;2023-12-22T11:06:34;8.70;99.90
11079;DHT22;5592;49.234;7.268;2023-12-22T11:09:06;8.70;99.90
11079;DHT22;5592;49.234;7.268;2023-12-22T11:11:40;8.80;99.90
11079;DHT22;5592;49.234;7.268;2023-12-22T11:14:06;8.80;99.90
11079;DHT22;5592;49.234;7.268;2023-12-22T11:16:35;8.70;99.90
11079;DHT22;5592;49.234;7.268;2023-12-22T11:19:02;8.70;99.90
11079;DHT22;5592;49.234;7.268;2023-12-22T11:21:28;8.60;99.90
11079;DHT22;5592;49.234;7.268;2023-12-22T11:23:55;8.60;99.90
11079;DHT22;5592;49.234;7.268;2023-12-22T11:26:23;8.60;99.90
11079;DHT22;5592;49.234;7.268;2023-12-22T11:28:51;8.70;99.90
11079;DHT22;5592;49.234;7.268;2023-12-22T11:31:20;8.60;99.90
11079;DHT22;5592;49.234;7.268;2023-12-22T11:33:48;8.60;99.90
11079;DHT22;5592;49.234;7.268;2023-12-22T11:36:14;8.50;99.90
11079;DHT22;5592;49.234;7.268;2023-12-22T11:38:45;8.50;99.90
11079;DHT22;5592;49.234;7.268;2023-12-22T11:41:26;8.50;99.90
11079;DHT22;5592;49.234;7.268;2023-12-22T11:43:53;8.60;99.90
11079;DHT22;5592;49.234;7.268;2023-12-22T11:46:22;8.70;99.90
11079;DHT22;5592;49.234;7.268;2023-12-22T11:48:51;8.70;99.90
11079;DHT22;5592;49.234;7.268;2023-12-22T11:51:17;8.70;99.90
11079;DHT22;5592;49.234;7.268;2023-12-22T11:53:44;8.80;99.90
11079;DHT22;5592;49.234;7.268;2023-12-22T11:56:11;8.80;99.90
11079;DHT22;5592;49.234;7.268;2023-12-22T11:58:45;8.90;99.90
11079;DHT22;5592;49.234;7.268;2023-12-22T12:01:20;8.90;99.90
11079;DHT22;5592;49.234;7.268;2023-12-22T12:03:56;9.00;99.90
11079;DHT22;5592;49.234;7.268;2023-12-22T12:09:06;9.20;99.90
11079;DHT22;5592;49.234;7.268;2023-12-22T12:14:24;9.30;99.90
11079;DHT22;5592;49.234;7.268;2023-12-22T12:17:02;9.30;99.90
11079;DHT22;5592;49.234;7.268;2023-12-22T12:19:29;9.40;99.90
11079;DHT22;5592;49.234;7.268;2023-12-22T12:21:55;9.50;99.90
11079;DHT22;5592;49.234;7.268;2023-12-22T12:24:20;9.60;99.90
11079;DHT22;5592;49.234;7.268;2023-12-22T12:26:46;9.60;99.90
11079;DHT22;5592;49.234;7.268;2023-12-22T12:29:12;9.70;99.90
11079;DHT22;5592;49.234;7.268;2023-12-22T12:31:37;9.60;99.90
11079;DHT22;5592;49.234;7.268;2023-12-22T12:34:04;9.60;99.90
11079;DHT22;5592;49.234;7.268;2023-12-22T12:36:31;9.60;99.90
11079;DHT22;5592;49.234;7.268;2023-12-22T12:39:07;9.70;99.90
11079;DHT22;5592;49.234;7.268;2023-12-22T12:41:36;9.60;99.90
11079;DHT22;5592;49.234;7.268;2023-12-22T12:44:04;9.70;99.90
11079;DHT22;5592;49.234;7.268;2023-12-22T12:46:36;9.70;99.90
11079;DHT22;5592;49.234;7.268;2023-12-22T12:49:09;9.70;99.90
11079;DHT22;5592;49.234;7.268;2023-12-22T12:51:43;9.60;99.90
11079;DHT22;5592;49.234;7.268;2023-12-22T12:54:10;9.60;99.90
11079;DHT22;5592;49.234;7.268;2023-12-22T12:56:44;9.60;99.90
11079;DHT22;5592;49.234;7.268;2023-12-22T12:59:17;9.50;99.90
11079;DHT22;5592;49.234;7.268;2023-12-22T13:01:47;9.60;99.90
11079;DHT22;5592;49.234;7.268;2023-12-22T13:04:16;9.60;99.90
11079;DHT22;5592;49.234;7.268;2023-12-22T13:06:50;9.60;99.90
11079;DHT22;5592;49.234;7.268;2023-12-22T13:09:17;9.70;99.90
11079;DHT22;5592;49.234;7.268;2023-12-22T13:11:45;9.70;99.90
11079;DHT22;5592;49.234;7.268;2023-12-22T13:14:24;9.70;99.90
11079;DHT22;5592;49.234;7.268;2023-12-22T13:16:51;9.80;99.90
11079;DHT22;5592;49.234;7.268;2023-12-22T13:19:19;9.80;99.90
11079;DHT22;5592;49.234;7.268;2023-12-22T13:21:45;9.80;99.90
11079;DHT22;5592;49.234;7.268;2023-12-22T13:24:14;9.80;99.90
11079;DHT22;5592;49.234;7.268;2023-12-22T13:26:44;9.70;99.90
11079;DHT22;5592;49.234;7.268;2023-12-22T13:29:12;9.70;99.90
11079;DHT22;5592;49.234;7.268;2023-12-22T13:31:40;9.80;99.90
11079;DHT22;5592;49.234;7.268;2023-12-22T13:34:13;9.80;99.90
11079;DHT22;5592;49.234;7.268;2023-12-22T13:36:39;9.80;99.90
11079;DHT22;5592;49.234;7.268;2023-12-22T13:39:06;9.80;99.90
11079;DHT22;5592;49.234;7.268;2023-12-22T13:41:38;9.80;99.90
11079;DHT22;5592;49.234;7.268;2023-12-22T13:44:11;9.80;99.90
11079;DHT22;5592;49.234;7.268;2023-12-22T13:46:37;9.80;99.90
11079;DHT22;5592;49.234;7.268;2023-12-22T13:49:07;9.80;99.90
11079;DHT22;5592;49.234;7.268;2023-12-22T13:51:45;9.80;99.90
11079;DHT22;5592;49.234;7.268;2023-12-22T13:54:13;9.90;99.90
11079;DHT22;5592;49.234;7.268;2023-12-22T13:56:39;9.80;99.90
11079;DHT22;5592;49.234;7.268;2023-12-22T13:59:09;9.80;99.90
11079;DHT22;5592;49.234;7.268;2023-12-22T14:01:35;9.80;99.90
11079;DHT22;5592;49.234;7.268;2023-12-22T14:04:01;9.80;99.90
11079;DHT22;5592;49.234;7.268;2023-12-22T14:06:27;9.80;99.90
11079;DHT22;5592;49.234;7.268;2023-12-22T14:08:56;9.80;99.90
11079;DHT22;5592;49.234;7.268;2023-12-22T14:11:22;9.80;99.90
11079;DHT22;5592;49.234;7.268;2023-12-22T14:13:48;9.80;99.90
11079;DHT22;5592;49.234;7.268;2023-12-22T14:16:14;9.80;99.90
11079;DHT22;5592;49.234;7.268;2023-12-22T14:18:43;9.70;99.90
11079;DHT22;5592;49.234;7.268;2023-12-22T14:21:09;9.70;99.90
11079;DHT22;5592;49.234;7.268;2023-12-22T14:23:35;9.70;99.90
11079;DHT22;5592;49.234;7.268;2023-12-22T14:26:01;9.70;99.90
11079;DHT22;5592;49.234;7.268;2023-12-22T14:28:27;9.70;99.90
11079;DHT22;5592;49.234;7.268;2023-12-22T14:30:53;9.70;99.90
11079;DHT22;5592;49.234;7.268;2023-12-22T14:33:18;9.80;99.90
11079;DHT22;5592;49.234;7.268;2023-12-22T14:35:44;9.70;99.90
11079;DHT22;5592;49.234;7.268;2023-12-22T14:38:12;9.80;99.90
11079;DHT22;5592;49.234;7.268;2023-12-22T14:40:37;9.70;99.90
11079;DHT22;5592;49.234;7.268;2023-12-22T14:43:03;9.70;99.90
11079;DHT22;5592;49.234;7.268;2023-12-22T14:45:32;9.70;99.90
11079;DHT22;5592;49.234;7.268;2023-12-22T14:47:57;9.70;99.90
11079;DHT22;5592;49.234;7.268;2023-12-22T14:50:23;9.60;99.90
11079;DHT22;5592;49.234;7.268;2023-12-22T14:52:48;9.60;99.90
11079;DHT22;5592;49.234;7.268;2023-12-22T14:55:14;9.60;99.90
11079;DHT22;5592;49.234;7.268;2023-12-22T14:57:44;9.60;99.90
11079;DHT22;5592;49.234;7.268;2023-12-22T15:00:10;9.60;99.90
11079;DHT22;5592;49.234;7.268;2023-12-22T15:02:38;9.60;99.90
11079;DHT22;5592;49.234;7.268;2023-12-22T15:05:04;9.60;99.90
11079;DHT22;5592;49.234;7.268;2023-12-22T15:07:32;9.60;99.90
11079;DHT22;5592;49.234;7.268;2023-12-22T15:09:58;9.50;99.90
11079;DHT22;5592;49.234;7.268;2023-12-22T15:12:27;9.50;99.90
11079;DHT22;5592;49.234;7.268;2023-12-22T15:14:57;9.50;99.90
11079;DHT22;5592;49.234;7.268;2023-12-22T15:17:24;9.60;99.90
11079;DHT22;5592;49.234;7.268;2023-12-22T15:19:49;9.50;99.90
11079;DHT22;5592;49.234;7.268;2023-12-22T15:22:15;9.50;99.90
11079;DHT22;5592;49.234;7.268;2023-12-22T15:24:41;9.50;99.90
11079;DHT22;5592;49.234;7.268;2023-12-22T15:27:09;9.50;99.90
11079;DHT22;5592;49.234;7.268;2023-12-22T15:29:36;9.50;99.90
11079;DHT22;5592;49.234;7.268;2023-12-22T15:32:01;9.50;99.90
11079;DHT22;5592;49.234;7.268;2023-12-22T15:34:27;9.50;99.90
11079;DHT22;5592;49.234;7.268;2023-12-22T15:36:53;9.50;99.90
11079;DHT22;5592;49.234;7.268;2023-12-22T15:39:21;9.50;99.90
11079;DHT22;5592;49.234;7.268;2023-12-22T15:41:49;9.50;99.90
11079;DHT22;5592;49.234;7.268;2023-12-22T15:44:15;9.50;99.90
11079;DHT22;5592;49.234;7.268;2023-12-22T15:46:41;9.50;99.90
11079;DHT22;5592;49.234;7.268;2023-12-22T15:49:07;9.50;99.90
11079;DHT22;5592;49.234;7.268;2023-12-22T15:51:32;9.50;99.90
11079;DHT22;5592;49.234;7.268;2023-12-22T15:53:59;9.50;99.90
11079;DHT22;5592;49.234;7.268;2023-12-22T15:56:25;9.50;99.90
11079;DHT22;5592;49.234;7.268;2023-12-22T15:58:50;9.50;99.90
11079;DHT22;5592;49.234;7.268;2023-12-22T16:01:16;9.50;99.90
11079;DHT22;5592;49.234;7.268;2023-12-22T16:03:42;9.50;99.90
11079;DHT22;5592;49.234;7.268;2023-12-22T16:06:13;9.50;99.90
11079;DHT22;5592;49.234;7.268;2023-12-22T16:08:42;9.50;99.90